createdAt,value
2022-08-18T00:01:13.381Z,19.35
2022-08-18T00:03:55.568Z,19.31
2022-08-18T00:06:27.900Z,19.30
2022-08-18T00:08:57.133Z,19.28
2022-08-18T00:11:26.664Z,19.27
2022-08-18T00:13:54.568Z,19.29
2022-08-18T00:16:22.588Z,19.26
2022-08-18T00:18:50.616Z,19.21
2022-08-18T00:21:18.996Z,19.23
2022-08-18T00:23:46.928Z,19.20
2022-08-18T00:26:14.815Z,19.15
2022-08-18T00:28:44.077Z,19.19
2022-08-18T00:31:11.968Z,19.19
2022-08-18T00:33:39.875Z,19.16
2022-08-18T00:36:07.820Z,19.16
2022-08-18T00:38:35.699Z,19.15
2022-08-18T00:41:03.695Z,19.14
2022-08-18T00:43:40.731Z,19.16
2022-08-18T00:46:15.539Z,19.14
2022-08-18T00:48:48.843Z,19.13
2022-08-18T00:51:23.818Z,19.10
2022-08-18T00:53:58.404Z,19.08
2022-08-18T00:56:31.406Z,19.11
2022-08-18T00:59:04.839Z,19.07
2022-08-18T01:01:35.557Z,19.05
2022-08-18T01:04:08.232Z,19.07
2022-08-18T01:06:43.193Z,18.99
2022-08-18T01:09:11.329Z,18.96
2022-08-18T01:11:41.396Z,18.91
2022-08-18T01:14:11.189Z,18.88
2022-08-18T01:16:58.043Z,18.89
2022-08-18T01:19:45.258Z,18.90
2022-08-18T01:22:20.557Z,18.88
2022-08-18T01:25:09.566Z,18.88
2022-08-18T01:27:37.734Z,18.83
2022-08-18T01:30:10.460Z,18.82
2022-08-18T01:32:39.936Z,18.77
2022-08-18T01:35:10.950Z,18.74
2022-08-18T01:37:38.840Z,18.74
2022-08-18T01:41:23.095Z,18.66
2022-08-18T01:42:58.772Z,18.67
2022-08-18T01:45:26.624Z,18.69
2022-08-18T01:47:55.862Z,18.57
2022-08-18T01:50:23.763Z,18.57
2022-08-18T01:52:53.725Z,18.58
2022-08-18T01:55:23.124Z,18.58
2022-08-18T01:57:52.336Z,18.51
2022-08-18T02:00:20.965Z,18.50
2022-08-18T02:02:58.184Z,18.49
2022-08-18T02:05:34.448Z,18.45
2022-08-18T02:08:02.384Z,18.45
2022-08-18T02:10:32.575Z,18.44
2022-08-18T02:13:00.511Z,18.43
2022-08-18T02:15:29.007Z,18.44
2022-08-18T02:17:56.872Z,18.41
2022-08-18T02:20:25.336Z,18.37
2022-08-18T02:22:53.291Z,18.35
2022-08-18T02:25:21.176Z,18.31
2022-08-18T02:27:50.496Z,18.30
2022-08-18T02:30:19.970Z,18.30
2022-08-18T02:32:47.928Z,18.30
2022-08-18T02:35:15.823Z,18.28
2022-08-18T02:37:47.697Z,18.28
2022-08-18T02:40:16.802Z,18.20
2022-08-18T02:42:45.681Z,18.23
2022-08-18T02:45:15.595Z,18.26
2022-08-18T02:47:44.336Z,18.22
2022-08-18T02:50:13.348Z,18.18
2022-08-18T02:52:41.380Z,18.15
2022-08-18T02:55:10.240Z,18.18
2022-08-18T02:57:43.415Z,18.14
2022-08-18T03:00:14.671Z,18.12
2022-08-18T03:02:47.332Z,18.17
2022-08-18T03:05:15.293Z,18.09
2022-08-18T03:07:43.571Z,18.04
2022-08-18T03:10:31.815Z,18.07
2022-08-18T03:13:00.238Z,18.10
2022-08-18T03:15:28.199Z,18.12
2022-08-18T03:17:58.297Z,18.09
2022-08-18T03:20:31.028Z,18.15
2022-08-18T03:22:59.342Z,18.18
2022-08-18T03:25:27.270Z,18.12
2022-08-18T03:27:55.159Z,18.17
2022-08-18T03:30:23.598Z,18.16
2022-08-18T03:32:52.226Z,18.15
2022-08-18T03:35:21.612Z,18.18
2022-08-18T03:37:49.434Z,18.19
2022-08-18T03:40:17.510Z,18.18
2022-08-18T03:42:45.458Z,18.18
2022-08-18T03:45:17.715Z,18.17
2022-08-18T03:47:46.582Z,18.11
2022-08-18T03:50:14.498Z,18.10
2022-08-18T03:52:43.744Z,18.15
2022-08-18T03:55:11.915Z,18.14
2022-08-18T03:57:39.772Z,18.12
2022-08-18T04:00:09.986Z,18.11
2022-08-18T04:02:37.840Z,18.12
2022-08-18T04:05:07.423Z,18.12
2022-08-18T04:07:35.372Z,18.09
2022-08-18T04:10:05.083Z,18.07
2022-08-18T04:12:32.923Z,18.07
2022-08-18T04:15:00.781Z,18.07
2022-08-18T04:17:29.002Z,18.07
2022-08-18T04:19:57.681Z,18.06
2022-08-18T04:22:26.386Z,18.04
2022-08-18T04:24:55.604Z,18.05
2022-08-18T04:27:27.097Z,18.06
2022-08-18T04:29:56.673Z,18.05
2022-08-18T04:32:29.949Z,18.03
2022-08-18T04:34:58.508Z,18.03
2022-08-18T04:37:32.365Z,18.04
2022-08-18T04:40:01.168Z,18.06
2022-08-18T04:42:30.438Z,18.05
2022-08-18T04:44:58.773Z,18.05
2022-08-18T04:47:26.726Z,18.03
2022-08-18T04:49:54.732Z,18.03
2022-08-18T04:52:41.977Z,18.04
2022-08-18T04:55:11.431Z,18.06
2022-08-18T04:57:42.528Z,18.07
2022-08-18T05:00:12.553Z,18.04
2022-08-18T05:02:40.684Z,18.09
2022-08-18T05:05:09.699Z,18.12
2022-08-18T05:07:37.575Z,18.10
2022-08-18T05:10:06.260Z,18.10
2022-08-18T05:12:34.256Z,18.11
2022-08-18T05:15:03.621Z,18.10
2022-08-18T05:17:32.030Z,18.10
2022-08-18T05:20:00.971Z,18.11
2022-08-18T05:22:31.551Z,18.11
2022-08-18T05:25:00.900Z,18.12
2022-08-18T05:27:33.283Z,18.12
2022-08-18T05:30:01.145Z,18.20
2022-08-18T05:32:48.754Z,18.16
2022-08-18T05:35:23.265Z,18.20
2022-08-18T05:38:21.081Z,18.26
2022-08-18T05:41:03.576Z,18.25
2022-08-18T05:43:31.737Z,18.24
2022-08-18T05:46:02.563Z,18.20
2022-08-18T05:48:32.153Z,18.25
2022-08-18T05:51:04.736Z,18.31
2022-08-18T05:53:47.422Z,18.33
2022-08-18T05:56:35.707Z,18.33
2022-08-18T05:59:04.609Z,18.38
2022-08-18T06:01:41.388Z,18.42
2022-08-18T06:04:27.165Z,18.49
2022-08-18T06:06:57.784Z,18.52
2022-08-18T06:09:29.836Z,18.59
2022-08-18T06:12:09.053Z,18.61
2022-08-18T06:14:39.267Z,18.67
2022-08-18T06:17:19.363Z,18.69
2022-08-18T06:19:58.275Z,18.75
2022-08-18T06:22:33.905Z,18.77
2022-08-18T06:25:08.379Z,18.86
2022-08-18T06:27:51.141Z,18.91
2022-08-18T06:30:25.448Z,18.95
2022-08-18T06:33:11.308Z,19.00
2022-08-18T06:35:46.903Z,19.06
2022-08-18T06:38:45.608Z,19.09
2022-08-18T06:41:37.968Z,19.07
2022-08-18T06:44:08.698Z,19.20
2022-08-18T06:46:48.188Z,19.22
2022-08-18T06:49:29.348Z,19.26
2022-08-18T06:51:58.593Z,19.34
2022-08-18T06:54:29.569Z,19.40
2022-08-18T06:56:59.124Z,19.45
2022-08-18T06:59:30.932Z,19.51
2022-08-18T07:02:02.602Z,19.58
2022-08-18T07:05:01.368Z,19.63
2022-08-18T07:07:39.597Z,19.63
2022-08-18T07:10:29.059Z,19.63
2022-08-18T07:13:16.496Z,19.67
2022-08-18T07:15:45.428Z,19.65
2022-08-18T07:18:14.314Z,19.68
2022-08-18T07:20:45.168Z,19.70
2022-08-18T07:23:25.753Z,19.72
2022-08-18T07:26:02.874Z,19.70
2022-08-18T07:28:34.232Z,19.73
2022-08-18T07:31:17.803Z,19.71
2022-08-18T07:33:51.777Z,19.68
2022-08-18T07:36:24.326Z,19.68
2022-08-18T07:38:59.497Z,19.67
2022-08-18T07:41:33.028Z,19.70
2022-08-18T07:44:13.983Z,19.70
2022-08-18T07:46:48.718Z,19.70
2022-08-18T07:49:22.315Z,19.67
2022-08-18T07:51:57.819Z,19.70
2022-08-18T07:54:50.102Z,19.66
2022-08-18T07:57:27.970Z,19.64
2022-08-18T08:00:04.770Z,19.63
2022-08-18T08:02:55.094Z,19.53
2022-08-18T08:05:40.887Z,19.57
2022-08-18T08:08:26.175Z,19.61
2022-08-18T08:11:10.867Z,19.64
2022-08-18T08:17:32.531Z,19.77
2022-08-18T08:20:17.387Z,19.85
2022-08-18T08:23:03.384Z,19.92
2022-08-18T08:25:53.123Z,19.99
2022-08-18T08:28:39.371Z,19.99
2022-08-18T08:31:35.883Z,20.06
2022-08-18T08:34:07.840Z,20.02
2022-08-18T08:36:40.188Z,20.11
2022-08-18T08:39:19.007Z,20.18
2022-08-18T08:41:51.382Z,20.17
2022-08-18T08:44:25.942Z,20.20
2022-08-18T08:47:00.021Z,20.34
2022-08-18T08:49:36.995Z,20.43
2022-08-18T08:52:10.211Z,20.43
2022-08-18T08:54:46.766Z,20.44
2022-08-18T08:57:16.856Z,20.56
2022-08-18T08:59:49.908Z,20.52
2022-08-18T09:02:48.122Z,20.63
2022-08-18T09:05:21.198Z,20.76
2022-08-18T09:08:17.298Z,20.83
2022-08-18T09:11:07.909Z,20.81
2022-08-18T09:14:25.832Z,20.95
2022-08-18T09:17:17.324Z,20.96
2022-08-18T09:20:09.333Z,20.86
2022-08-18T09:22:47.900Z,20.88
2022-08-18T09:25:34.739Z,21.02
2022-08-18T09:28:12.347Z,21.05
2022-08-18T09:30:47.448Z,21.04
2022-08-18T09:33:34.769Z,21.16
2022-08-18T09:36:25.634Z,21.16
2022-08-18T09:39:18.393Z,21.29
2022-08-18T09:41:52.733Z,21.39
2022-08-18T09:45:01.459Z,21.30
2022-08-18T09:48:10.088Z,21.44
2022-08-18T09:51:01.628Z,21.44
2022-08-18T09:53:38.239Z,21.46
2022-08-18T09:56:08.116Z,21.55
2022-08-18T09:58:58.685Z,21.68
2022-08-18T10:01:42.496Z,21.67
2022-08-18T10:04:32.175Z,21.74
2022-08-18T10:07:38.742Z,21.83
2022-08-18T10:11:01.118Z,21.99
2022-08-18T10:13:24.707Z,22.10
2022-08-18T10:16:16.650Z,22.10
2022-08-18T10:19:02.343Z,22.10
2022-08-18T10:21:53.737Z,22.08
2022-08-18T10:24:36.042Z,22.22
2022-08-18T10:27:09.928Z,22.10
2022-08-18T10:29:53.861Z,22.13
2022-08-18T10:32:38.975Z,22.21
2022-08-18T10:35:38.168Z,22.29
2022-08-18T10:38:12.949Z,22.44
2022-08-18T10:40:57.116Z,22.49
2022-08-18T10:43:45.731Z,22.45
2022-08-18T10:46:25.626Z,22.29
2022-08-18T10:49:17.395Z,22.42
2022-08-18T10:52:01.435Z,22.35
2022-08-18T10:54:51.164Z,22.44
2022-08-18T10:57:29.732Z,22.45
2022-08-18T11:00:03.627Z,22.47
2022-08-18T11:03:02.488Z,22.41
2022-08-18T11:05:36.675Z,22.48
2022-08-18T11:08:16.130Z,22.42
2022-08-18T11:11:05.923Z,22.45
2022-08-18T11:13:57.957Z,22.53
2022-08-18T11:16:38.797Z,22.62
2022-08-18T11:19:12.202Z,22.45
2022-08-18T11:21:43.919Z,22.54
2022-08-18T11:24:16.371Z,22.55
2022-08-18T11:26:52.658Z,22.50
2022-08-18T11:29:32.626Z,22.61
2022-08-18T11:32:05.252Z,22.79
2022-08-18T11:34:52.074Z,22.84
2022-08-18T11:37:26.964Z,22.85
2022-08-18T11:39:58.907Z,22.92
2022-08-18T11:42:33.637Z,22.98
2022-08-18T11:45:15.993Z,22.95
2022-08-18T11:48:03.217Z,23.00
2022-08-18T11:50:34.991Z,23.01
2022-08-18T11:53:18.859Z,22.94
2022-08-18T11:56:13.282Z,23.05
2022-08-18T11:58:46.029Z,22.97
2022-08-18T12:04:37.426Z,22.96
2022-08-18T12:07:09.310Z,23.03
2022-08-18T12:12:31.455Z,23.06
2022-08-18T12:15:10.487Z,23.13
2022-08-18T12:17:52.162Z,23.21
2022-08-18T12:20:22.150Z,23.24
2022-08-18T12:22:50.839Z,23.26
2022-08-18T12:28:10.916Z,23.25
2022-08-18T12:30:42.182Z,23.37
2022-08-18T12:35:59.862Z,23.60
2022-08-18T12:38:28.203Z,23.71
2022-08-18T12:40:57.084Z,23.62
2022-08-18T12:43:24.949Z,23.58
2022-08-18T12:46:00.882Z,23.59
2022-08-18T12:48:31.623Z,23.61
2022-08-18T12:51:00.962Z,23.57
2022-08-18T12:53:58.517Z,23.68
2022-08-18T12:56:25.436Z,23.80
2022-08-18T12:58:54.760Z,23.75
2022-08-18T13:01:23.467Z,23.80
2022-08-18T13:04:10.933Z,23.81
2022-08-18T13:06:59.463Z,23.87
2022-08-18T13:09:42.976Z,23.86
2022-08-18T13:12:19.664Z,23.69
2022-08-18T13:14:49.775Z,23.80
2022-08-18T13:17:30.589Z,23.87
2022-08-18T13:20:06.176Z,23.94
2022-08-18T13:22:35.907Z,24.01
2022-08-18T13:25:05.223Z,24.04
2022-08-18T13:27:35.348Z,23.96
2022-08-18T13:30:16.853Z,23.98
2022-08-18T13:33:00.351Z,23.98
2022-08-18T13:35:44.167Z,23.94
2022-08-18T13:38:14.482Z,24.05
2022-08-18T13:40:46.869Z,24.11
2022-08-18T13:43:15.803Z,23.99
2022-08-18T13:45:48.132Z,23.97
2022-08-18T13:48:21.481Z,24.19
2022-08-18T13:50:52.270Z,24.17
2022-08-18T13:53:21.805Z,24.28
2022-08-18T13:55:50.401Z,24.32
2022-08-18T13:58:20.874Z,24.35
2022-08-18T14:00:54.001Z,24.29
2022-08-18T14:03:38.520Z,24.19
2022-08-18T14:06:13.333Z,24.19
2022-08-18T14:08:42.241Z,24.17
2022-08-18T14:11:10.648Z,24.14
2022-08-18T14:13:43.871Z,24.14
2022-08-18T14:16:16.267Z,24.22
2022-08-18T14:19:09.455Z,24.21
2022-08-18T14:22:00.711Z,24.19
2022-08-18T14:24:48.915Z,24.23
2022-08-18T14:27:17.479Z,24.35
2022-08-18T14:29:47.947Z,24.40
2022-08-18T14:32:28.600Z,24.31
2022-08-18T14:35:00.516Z,24.51
2022-08-18T14:37:31.339Z,24.60
2022-08-18T14:40:02.535Z,24.61
2022-08-18T14:42:33.038Z,24.54
2022-08-18T14:45:18.100Z,24.61
2022-08-18T14:48:06.521Z,24.63
2022-08-18T14:50:35.267Z,24.60
2022-08-18T14:53:04.783Z,24.67
2022-08-18T14:55:32.838Z,24.67
2022-08-18T14:58:02.528Z,24.78
2022-08-18T15:00:30.573Z,24.70
2022-08-18T15:03:00.232Z,24.73
2022-08-18T15:05:33.717Z,24.65
2022-08-18T15:08:03.700Z,24.68
2022-08-18T15:10:34.220Z,24.67
2022-08-18T15:13:03.694Z,24.73
2022-08-18T15:15:42.226Z,24.73
2022-08-18T15:18:22.593Z,24.79
2022-08-18T15:21:10.346Z,24.75
2022-08-18T15:24:05.081Z,24.82
2022-08-18T15:26:44.333Z,24.84
2022-08-18T15:29:15.011Z,24.78
2022-08-18T15:31:50.804Z,24.81
2022-08-18T15:34:20.575Z,24.85
2022-08-18T15:36:49.425Z,24.89
2022-08-18T15:39:17.875Z,24.86
2022-08-18T15:41:49.325Z,24.68
2022-08-18T15:44:19.174Z,24.67
2022-08-18T15:46:53.025Z,24.64
2022-08-18T15:49:23.885Z,24.63
2022-08-18T15:51:52.493Z,24.57
2022-08-18T15:54:20.787Z,24.59
2022-08-18T15:56:57.794Z,24.53
2022-08-18T15:59:33.068Z,24.52
2022-08-18T16:02:11.460Z,24.43
2022-08-18T16:04:41.293Z,24.44
2022-08-18T16:07:11.034Z,24.39
2022-08-18T16:09:38.974Z,24.45
2022-08-18T16:12:11.244Z,24.41
2022-08-18T16:14:41.539Z,24.37
2022-08-18T16:17:23.482Z,24.31
2022-08-18T16:19:51.987Z,24.26
2022-08-18T16:22:19.961Z,24.34
2022-08-18T16:24:54.610Z,24.25
2022-08-18T16:27:24.961Z,24.23
2022-08-18T16:29:52.866Z,24.21
2022-08-18T16:32:20.703Z,24.18
2022-08-18T16:34:48.621Z,24.08
2022-08-18T16:39:49.509Z,23.82
2022-08-18T16:42:18.162Z,23.79
2022-08-18T16:44:47.515Z,23.66
2022-08-18T16:47:17.603Z,23.54
2022-08-18T16:49:48.516Z,23.52
2022-08-18T16:52:16.747Z,23.46
2022-08-18T16:54:46.319Z,23.41
2022-08-18T16:57:37.410Z,23.32
2022-08-18T17:00:41.284Z,23.03
2022-08-18T17:03:27.361Z,23.09
2022-08-18T17:06:00.835Z,22.88
2022-08-18T17:08:29.499Z,23.03
2022-08-18T17:10:57.868Z,23.00
2022-08-18T17:13:25.741Z,23.01
2022-08-18T17:15:54.978Z,22.94
2022-08-18T17:18:24.354Z,22.88
2022-08-18T17:20:52.734Z,22.79
2022-08-18T17:23:23.979Z,22.72
2022-08-18T17:25:52.523Z,22.67
2022-08-18T17:28:26.289Z,22.65
2022-08-18T17:30:55.685Z,22.53
2022-08-18T17:33:28.904Z,22.52
2022-08-18T17:36:02.359Z,22.50
2022-08-18T17:38:36.309Z,22.56
2022-08-18T17:41:06.251Z,22.47
2022-08-18T17:43:46.144Z,22.42
2022-08-18T17:46:27.365Z,22.38
2022-08-18T17:49:02.154Z,22.39
2022-08-18T17:51:34.673Z,22.40
2022-08-18T17:54:10.224Z,22.29
2022-08-18T17:56:43.387Z,22.18
2022-08-18T18:02:18.283Z,22.18
2022-08-18T18:04:59.422Z,22.13
2022-08-18T18:07:30.141Z,22.12
2022-08-18T18:10:01.671Z,21.98
2022-08-18T18:12:32.103Z,22.03
2022-08-18T18:15:02.116Z,21.94
2022-08-18T18:17:37.598Z,21.93
2022-08-18T18:20:17.806Z,21.95
2022-08-18T18:22:48.576Z,21.83
2022-08-18T18:25:34.815Z,21.82
2022-08-18T18:28:02.893Z,21.73
2022-08-18T18:30:34.863Z,21.73
2022-08-18T18:33:14.099Z,21.77
2022-08-18T18:35:54.012Z,21.69
2022-08-18T18:38:33.457Z,21.70
2022-08-18T18:41:03.806Z,21.67
2022-08-18T18:43:38.812Z,21.66
2022-08-18T18:46:23.739Z,21.60
2022-08-18T18:49:07.506Z,21.52
2022-08-18T18:51:43.693Z,21.52
2022-08-18T18:54:23.596Z,21.50
2022-08-18T18:56:56.278Z,21.45
2022-08-18T18:59:38.725Z,21.45
2022-08-18T19:02:33.707Z,21.40
2022-08-18T19:05:17.631Z,21.37
2022-08-18T19:08:02.187Z,21.34
2022-08-18T19:10:36.978Z,21.33
2022-08-18T19:13:25.121Z,21.40
2022-08-18T19:16:23.849Z,21.36
2022-08-18T19:19:36.279Z,21.30
2022-08-18T19:22:04.423Z,21.31
2022-08-18T19:24:39.173Z,21.21
2022-08-18T19:27:12.380Z,21.22
2022-08-18T19:29:44.604Z,21.24
2022-08-18T19:32:16.848Z,21.26
2022-08-18T19:34:52.642Z,21.18
2022-08-18T19:37:32.363Z,21.18
2022-08-18T19:40:09.317Z,21.16
2022-08-18T19:42:45.143Z,21.13
2022-08-18T19:45:23.457Z,21.10
2022-08-18T19:47:57.374Z,21.13
2022-08-18T19:50:32.186Z,21.08
2022-08-18T19:53:32.794Z,21.06
2022-08-18T19:56:27.571Z,21.03
2022-08-18T19:59:19.588Z,20.98
2022-08-18T20:02:00.436Z,20.95
2022-08-18T20:04:47.635Z,20.91
2022-08-18T20:07:37.910Z,20.94
2022-08-18T20:10:28.118Z,20.90
2022-08-18T20:13:12.490Z,20.87
2022-08-18T20:16:00.042Z,20.88
2022-08-18T20:18:34.543Z,20.84
2022-08-18T20:21:33.985Z,20.80
2022-08-18T20:24:30.436Z,20.80
2022-08-18T20:27:16.309Z,20.81
2022-08-18T20:29:47.395Z,20.80
2022-08-18T20:32:21.191Z,20.71
2022-08-18T20:34:52.261Z,20.76
2022-08-18T20:37:25.541Z,20.73
2022-08-18T20:39:56.638Z,20.72
2022-08-18T20:42:55.819Z,20.67
2022-08-18T20:45:37.203Z,20.67
2022-08-18T20:48:32.632Z,20.67
2022-08-18T20:51:10.621Z,20.62
2022-08-18T20:54:03.318Z,20.59
2022-08-18T20:56:43.290Z,20.63
2022-08-18T20:59:19.546Z,20.62
2022-08-18T21:01:58.901Z,20.57
2022-08-18T21:04:42.836Z,20.59
2022-08-18T21:07:18.475Z,20.51
2022-08-18T21:10:12.777Z,20.56
2022-08-18T21:12:51.849Z,20.54
2022-08-18T21:15:24.271Z,20.54
2022-08-18T21:17:58.820Z,20.54
2022-08-18T21:20:28.472Z,20.53
2022-08-18T21:23:09.965Z,20.55
2022-08-18T21:25:42.017Z,20.52
2022-08-18T21:28:09.931Z,20.49
2022-08-18T21:30:39.388Z,20.47
2022-08-18T21:33:20.123Z,20.50
2022-08-18T21:35:48.419Z,20.51
2022-08-18T21:38:16.434Z,20.47
2022-08-18T21:40:47.917Z,20.45
2022-08-18T21:43:35.783Z,20.44
2022-08-18T21:46:05.192Z,20.44
2022-08-18T21:48:36.076Z,20.42
2022-08-18T21:51:03.968Z,20.44
2022-08-18T21:53:33.778Z,20.40
2022-08-18T21:56:02.621Z,20.39
2022-08-18T21:58:38.869Z,20.34
2022-08-18T22:01:14.004Z,20.33
2022-08-18T22:03:59.465Z,20.35
2022-08-18T22:06:35.997Z,20.32
2022-08-18T22:09:29.579Z,20.36
2022-08-18T22:12:37.676Z,20.36
2022-08-18T22:15:11.730Z,20.28
2022-08-18T22:17:52.812Z,20.32
2022-08-18T22:20:46.679Z,20.32
2022-08-18T22:23:54.934Z,20.30
2022-08-18T22:26:27.284Z,20.27
2022-08-18T22:29:03.926Z,20.18
2022-08-18T22:31:35.579Z,20.25
2022-08-18T22:34:07.446Z,20.27
2022-08-18T22:36:38.052Z,20.28
2022-08-18T22:39:10.264Z,20.16
2022-08-18T22:41:39.200Z,20.20
2022-08-18T22:44:08.099Z,20.13
2022-08-18T22:46:36.957Z,20.08
2022-08-18T22:49:06.489Z,20.13
2022-08-18T22:51:37.096Z,20.13
2022-08-18T22:54:08.347Z,20.11
2022-08-18T22:56:37.875Z,20.14
2022-08-18T22:59:13.979Z,20.14
2022-08-18T23:01:50.078Z,20.15
2022-08-18T23:04:22.226Z,20.13
2022-08-18T23:06:52.573Z,20.03
2022-08-18T23:09:23.526Z,20.03
2022-08-18T23:11:52.196Z,20.05
2022-08-18T23:14:20.340Z,20.07
2022-08-18T23:16:48.401Z,20.09
2022-08-18T23:19:17.531Z,19.99
2022-08-18T23:21:48.459Z,20.06
2022-08-18T23:24:22.492Z,20.06
2022-08-18T23:26:50.875Z,20.03
2022-08-18T23:29:19.825Z,20.05
2022-08-18T23:31:50.074Z,20.03
2022-08-18T23:34:19.275Z,19.96
2022-08-18T23:36:55.481Z,20.01
2022-08-18T23:39:23.884Z,20.03
2022-08-18T23:41:53.030Z,19.96
2022-08-18T23:44:21.254Z,19.99
2022-08-18T23:46:51.886Z,19.97
2022-08-18T23:49:19.875Z,20.00
2022-08-18T23:51:54.460Z,20.00
2022-08-18T23:54:24.426Z,20.00
2022-08-18T23:56:52.367Z,19.92
2022-08-18T23:59:22.619Z,19.93
